createdAt,value
2019-03-19T00:00:31.981Z,77.69
2019-03-19T00:01:31.957Z,78.55
2019-03-19T00:02:31.948Z,78.52
2019-03-19T00:03:31.946Z,78.93
2019-03-19T00:04:31.941Z,78.83
2019-03-19T00:05:31.960Z,79.03
2019-03-19T00:06:31.887Z,78.83
2019-03-19T00:07:31.901Z,79.03
2019-03-19T00:08:31.884Z,78.72
2019-03-19T00:09:31.909Z,78.93
2019-03-19T00:10:31.845Z,79.14
2019-03-19T00:11:31.861Z,78.93
2019-03-19T00:12:31.842Z,78.48
2019-03-19T00:13:31.836Z,79.35
2019-03-19T00:14:31.885Z,79.76
2019-03-19T00:15:31.843Z,79.41
2019-03-19T00:16:31.801Z,79.62
2019-03-19T00:17:31.806Z,79.52
2019-03-19T00:18:31.794Z,79.21
2019-03-19T00:19:31.801Z,79.41
2019-03-19T00:20:31.734Z,79.41
2019-03-19T00:21:31.749Z,79.41
2019-03-19T00:22:31.758Z,79.72
2019-03-19T00:23:31.754Z,79.41
2019-03-19T00:24:31.711Z,79.10
2019-03-19T00:25:31.702Z,79.00
2019-03-19T00:26:31.703Z,78.96
2019-03-19T00:27:31.727Z,78.79
2019-03-19T00:28:31.690Z,78.96
2019-03-19T00:29:31.709Z,79.00
2019-03-19T00:30:31.675Z,78.58
2019-03-19T00:31:31.644Z,78.38
2019-03-19T00:32:31.647Z,78.89
2019-03-19T00:33:31.634Z,78.48
2019-03-19T00:34:31.625Z,78.48
2019-03-19T00:35:31.616Z,78.79
2019-03-19T00:36:31.605Z,78.06
2019-03-19T00:37:31.575Z,77.75
2019-03-19T00:38:31.566Z,77.72
2019-03-19T00:39:31.564Z,77.96
2019-03-19T00:40:31.604Z,77.96
2019-03-19T00:41:31.521Z,78.58
2019-03-19T00:42:31.553Z,77.65
2019-03-19T00:43:31.554Z,77.96
2019-03-19T00:44:31.495Z,77.48
2019-03-19T00:45:31.565Z,77.34
2019-03-19T00:46:31.482Z,77.34
2019-03-19T00:47:31.472Z,77.27
2019-03-19T00:48:31.446Z,76.85
2019-03-19T00:49:31.457Z,77.27
2019-03-19T00:50:31.465Z,77.48
2019-03-19T00:51:31.550Z,77.27
2019-03-19T00:52:31.433Z,76.95
2019-03-19T00:53:31.392Z,77.27
2019-03-19T00:54:31.408Z,77.69
2019-03-19T00:55:40.350Z,77.09
2019-03-19T00:56:32.359Z,77.40
2019-03-19T00:57:31.399Z,77.09
2019-03-19T00:58:31.361Z,77.83
2019-03-19T00:59:31.380Z,77.40
2019-03-19T01:00:31.392Z,77.61
2019-03-19T01:01:31.302Z,77.40
2019-03-19T01:02:31.293Z,78.03
2019-03-19T01:03:31.350Z,77.51
2019-03-19T01:04:31.277Z,77.51
2019-03-19T01:05:31.288Z,77.09
2019-03-19T01:06:31.230Z,77.83
2019-03-19T01:07:31.236Z,77.72
2019-03-19T01:08:31.254Z,77.96
2019-03-19T01:09:31.237Z,78.38
2019-03-19T01:10:31.256Z,79.21
2019-03-19T01:11:31.220Z,79.11
2019-03-19T01:12:31.179Z,79.32
2019-03-19T01:13:31.191Z,79.21
2019-03-19T01:14:31.470Z,78.90
2019-03-19T01:15:31.179Z,78.80
2019-03-19T01:16:31.143Z,79.11
2019-03-19T01:17:31.149Z,78.59
2019-03-19T01:18:31.154Z,78.69
2019-03-19T01:19:31.124Z,79.11
2019-03-19T01:20:31.123Z,79.21
2019-03-19T01:21:31.115Z,79.42
2019-03-19T01:22:31.064Z,79.83
2019-03-19T01:23:31.076Z,79.83
2019-03-19T01:24:31.054Z,79.63
2019-03-19T01:25:31.089Z,79.42
2019-03-19T01:26:31.058Z,80.08
2019-03-19T01:27:31.044Z,79.98
2019-03-19T01:28:31.029Z,79.21
2019-03-19T01:29:30.989Z,79.87
2019-03-19T01:30:31.013Z,80.50
2019-03-19T01:31:30.972Z,80.81
2019-03-19T01:32:31.014Z,80.91
2019-03-19T01:33:30.942Z,81.23
2019-03-19T01:34:31.002Z,81.23
2019-03-19T01:35:30.960Z,80.50
2019-03-19T01:36:30.918Z,81.02
2019-03-19T01:37:30.907Z,80.50
2019-03-19T01:38:30.913Z,80.71
2019-03-19T01:39:30.906Z,80.88
2019-03-19T01:40:30.911Z,80.88
2019-03-19T01:41:30.866Z,80.88
2019-03-19T01:42:30.878Z,80.57
2019-03-19T01:43:30.881Z,80.36
2019-03-19T01:44:30.836Z,80.36
2019-03-19T01:45:30.819Z,80.15
2019-03-19T01:46:30.809Z,79.94
2019-03-19T01:47:30.818Z,79.94
2019-03-19T01:48:30.787Z,79.32
2019-03-19T01:49:30.816Z,80.15
2019-03-19T01:50:30.806Z,79.56
2019-03-19T01:51:30.781Z,80.36
2019-03-19T01:52:30.763Z,80.19
2019-03-19T01:53:30.752Z,80.15
2019-03-19T01:54:30.747Z,80.36
2019-03-19T01:55:30.791Z,80.57
2019-03-19T01:56:30.755Z,80.88
2019-03-19T01:57:30.696Z,80.77
2019-03-19T01:58:30.705Z,80.98
2019-03-19T01:59:30.688Z,80.77
2019-03-19T02:00:30.662Z,80.36
2019-03-19T02:01:30.741Z,80.36
2019-03-19T02:02:30.659Z,80.26
2019-03-19T02:03:30.648Z,79.52
2019-03-19T02:04:30.619Z,79.83
2019-03-19T02:05:30.630Z,80.50
2019-03-19T02:06:30.611Z,79.73
2019-03-19T02:07:30.638Z,80.50
2019-03-19T02:08:30.602Z,80.29
2019-03-19T02:09:30.582Z,81.12
2019-03-19T02:10:30.550Z,81.33
2019-03-19T02:11:30.616Z,81.33
2019-03-19T02:12:30.532Z,81.96
2019-03-19T02:13:30.551Z,81.85
2019-03-19T02:14:30.535Z,81.85
2019-03-19T02:15:30.496Z,81.54
2019-03-19T02:16:30.505Z,81.85
2019-03-19T02:17:30.518Z,83.14
2019-03-19T02:18:30.513Z,84.28
2019-03-19T02:19:30.488Z,83.66
2019-03-19T02:20:30.440Z,83.66
2019-03-19T02:21:30.503Z,84.18
2019-03-19T02:22:30.410Z,83.76
2019-03-19T02:23:30.410Z,84.25
2019-03-19T02:24:30.400Z,82.79
2019-03-19T02:25:30.496Z,83.31
2019-03-19T02:26:30.405Z,82.37
2019-03-19T02:27:30.385Z,82.58
2019-03-19T02:28:30.453Z,82.79
2019-03-19T02:29:30.363Z,82.27
2019-03-19T02:30:30.385Z,82.58
2019-03-19T02:31:30.525Z,82.79
2019-03-19T02:32:30.371Z,82.37
2019-03-19T02:33:30.317Z,82.89
2019-03-19T02:34:30.294Z,82.79
2019-03-19T02:35:30.279Z,82.79
2019-03-19T02:36:30.378Z,82.68
2019-03-19T02:37:30.268Z,82.58
2019-03-19T02:38:30.293Z,82.48
2019-03-19T02:39:30.282Z,82.27
2019-03-19T02:40:30.253Z,82.89
2019-03-19T02:41:30.306Z,82.48
2019-03-19T02:42:30.263Z,82.48
2019-03-19T02:43:30.225Z,82.86
2019-03-19T02:44:30.165Z,82.37
2019-03-19T02:45:30.177Z,82.68
2019-03-19T02:46:30.202Z,82.17
2019-03-19T02:47:30.156Z,81.85
2019-03-19T02:48:30.171Z,81.75
2019-03-19T02:49:30.163Z,81.23
2019-03-19T02:50:30.141Z,80.81
2019-03-19T02:51:30.141Z,80.64
2019-03-19T02:52:30.121Z,80.85
2019-03-19T02:53:30.112Z,80.95
2019-03-19T02:54:30.083Z,81.05
2019-03-19T02:55:30.077Z,80.85
2019-03-19T02:56:33.327Z,80.74
2019-03-19T02:57:30.070Z,80.95
2019-03-19T02:58:30.051Z,80.85
2019-03-19T02:59:30.040Z,81.05
2019-03-19T03:01:47.029Z,80.85
2019-03-19T03:02:46.266Z,81.05
2019-03-19T03:03:46.220Z,80.85
2019-03-19T03:04:46.217Z,80.95
2019-03-19T03:05:46.197Z,81.20
2019-03-19T03:06:46.195Z,80.78
2019-03-19T03:07:46.203Z,80.88
2019-03-19T03:08:46.193Z,81.09
2019-03-19T03:09:46.178Z,81.02
2019-03-19T03:10:46.145Z,81.23
2019-03-19T03:11:46.206Z,81.55
2019-03-19T03:12:46.154Z,81.86
2019-03-19T03:13:46.104Z,82.17
2019-03-19T03:14:46.467Z,81.86
2019-03-19T03:15:46.077Z,82.59
2019-03-19T03:16:46.085Z,82.59
2019-03-19T03:17:46.094Z,82.65
2019-03-19T03:18:46.077Z,82.90
2019-03-19T03:19:46.068Z,83.11
2019-03-19T03:20:46.061Z,83.39
2019-03-19T03:21:46.065Z,83.42
2019-03-19T03:22:46.013Z,83.53
2019-03-19T03:23:46.000Z,83.49
2019-03-19T03:24:45.994Z,83.07
2019-03-19T03:25:46.034Z,83.49
2019-03-19T03:26:48.003Z,82.97
2019-03-19T03:27:45.963Z,83.80
2019-03-19T03:28:45.943Z,83.59
2019-03-19T03:29:45.943Z,83.59
2019-03-19T03:30:45.999Z,83.49
2019-03-19T03:31:45.985Z,83.70
2019-03-19T03:32:45.964Z,83.49
2019-03-19T03:33:45.908Z,82.97
2019-03-19T03:34:45.956Z,82.76
2019-03-19T03:35:45.961Z,82.87
2019-03-19T03:36:45.866Z,82.97
2019-03-19T03:37:45.857Z,83.18
2019-03-19T03:38:45.869Z,82.76
2019-03-19T03:39:45.830Z,82.65
2019-03-19T03:40:45.931Z,82.97
2019-03-19T03:41:45.812Z,81.79
2019-03-19T03:42:45.834Z,81.82
2019-03-19T03:43:45.815Z,81.30
2019-03-19T03:44:45.771Z,81.09
2019-03-19T03:45:45.798Z,80.99
2019-03-19T03:46:45.793Z,81.09
2019-03-19T03:47:45.897Z,80.88
2019-03-19T03:48:45.737Z,80.88
2019-03-19T03:49:45.725Z,80.40
2019-03-19T03:50:45.707Z,81.20
2019-03-19T03:51:45.711Z,81.34
2019-03-19T03:52:45.721Z,81.51
2019-03-19T03:53:45.743Z,81.55
2019-03-19T03:54:45.662Z,80.92
2019-03-19T03:55:45.666Z,81.45
2019-03-19T03:56:45.648Z,81.02
2019-03-19T03:57:45.695Z,80.71
2019-03-19T03:58:59.641Z,80.33
2019-03-19T03:59:46.613Z,80.54
2019-03-19T04:00:45.591Z,80.65
2019-03-19T04:01:45.591Z,80.96
2019-03-19T04:02:45.596Z,80.65
2019-03-19T04:03:45.602Z,80.96
2019-03-19T04:04:45.568Z,81.06
2019-03-19T04:05:45.555Z,80.96
2019-03-19T04:06:45.566Z,80.96
2019-03-19T04:07:45.554Z,81.06
2019-03-19T04:08:45.574Z,80.54
2019-03-19T04:09:45.513Z,81.16
2019-03-19T04:10:45.520Z,81.48
2019-03-19T04:11:45.557Z,81.48
2019-03-19T04:12:45.507Z,82.00
2019-03-19T04:13:45.557Z,81.59
2019-03-19T04:14:46.793Z,82.00
2019-03-19T04:15:45.489Z,82.10
2019-03-19T04:16:45.485Z,81.90
2019-03-19T04:17:45.450Z,82.10
2019-03-19T04:18:45.445Z,81.90
2019-03-19T04:19:45.429Z,82.00
2019-03-19T04:20:45.393Z,81.59
2019-03-19T04:21:45.375Z,81.06
2019-03-19T04:22:45.392Z,81.59
2019-03-19T04:23:45.357Z,82.00
2019-03-19T04:24:45.401Z,81.90
2019-03-19T04:25:45.345Z,82.00
2019-03-19T04:26:45.326Z,81.59
2019-03-19T04:27:45.337Z,81.38
2019-03-19T04:28:45.368Z,81.59
2019-03-19T04:29:45.295Z,82.25
2019-03-19T04:30:45.308Z,82.00
2019-03-19T04:31:45.325Z,81.48
2019-03-19T04:32:45.266Z,80.96
2019-03-19T04:33:45.251Z,80.96
2019-03-19T04:34:45.237Z,81.06
2019-03-19T04:35:45.251Z,81.06
2019-03-19T04:36:45.228Z,81.48
2019-03-19T04:37:45.268Z,81.31
2019-03-19T04:38:45.243Z,81.41
2019-03-19T04:39:45.195Z,81.48
2019-03-19T04:40:45.198Z,81.62
2019-03-19T04:41:45.179Z,80.99
2019-03-19T04:42:45.228Z,81.62
2019-03-19T04:43:45.216Z,82.14
2019-03-19T04:44:45.163Z,82.25
2019-03-19T04:45:45.132Z,81.73
2019-03-19T04:46:45.148Z,81.83
2019-03-19T04:47:45.109Z,82.04
2019-03-19T04:48:45.097Z,82.25
2019-03-19T04:49:45.191Z,82.25
2019-03-19T04:50:45.091Z,82.46
2019-03-19T04:51:45.084Z,83.08
2019-03-19T04:52:45.082Z,82.67
2019-03-19T04:53:45.114Z,82.87
2019-03-19T04:54:45.052Z,82.87
2019-03-19T04:55:45.056Z,82.77
2019-03-19T04:56:45.005Z,82.46
2019-03-19T04:57:45.006Z,82.77
2019-03-19T04:58:44.994Z,82.56
2019-03-19T04:59:45.065Z,82.77
2019-03-19T05:00:45.018Z,82.98
2019-03-19T05:01:44.956Z,82.25
2019-03-19T05:02:44.959Z,82.25
2019-03-19T05:03:44.943Z,83.08
2019-03-19T05:04:45.257Z,82.67
2019-03-19T05:05:44.920Z,83.29
2019-03-19T05:06:44.892Z,82.25
2019-03-19T05:07:44.903Z,82.25
2019-03-19T05:08:44.883Z,82.14
2019-03-19T05:09:44.872Z,82.35
2019-03-19T05:10:44.920Z,81.83
2019-03-19T05:11:44.857Z,81.93
2019-03-19T05:12:44.847Z,82.04
2019-03-19T05:13:44.839Z,81.93
2019-03-19T05:14:44.872Z,82.46
2019-03-19T05:15:44.842Z,82.14
2019-03-19T05:16:44.781Z,82.14
2019-03-19T05:17:44.785Z,82.35
2019-03-19T05:18:44.778Z,82.18
2019-03-19T05:19:44.777Z,81.83
2019-03-19T05:20:44.860Z,82.14
2019-03-19T05:21:44.770Z,82.46
2019-03-19T05:22:44.747Z,81.97
2019-03-19T05:23:44.726Z,82.07
2019-03-19T05:24:44.806Z,81.97
2019-03-19T05:25:44.714Z,81.97
2019-03-19T05:26:44.737Z,81.97
2019-03-19T05:27:44.711Z,82.07
2019-03-19T05:28:44.682Z,82.29
2019-03-19T05:29:44.695Z,83.12
2019-03-19T05:30:44.653Z,82.60
2019-03-19T05:31:44.644Z,82.70
2019-03-19T05:32:44.701Z,82.60
2019-03-19T05:33:44.646Z,82.91
2019-03-19T05:34:44.695Z,83.01
2019-03-19T05:35:44.597Z,82.70
2019-03-19T05:36:44.600Z,82.67
2019-03-19T05:37:44.594Z,82.60
2019-03-19T05:38:44.572Z,82.56
2019-03-19T05:39:44.544Z,82.29
2019-03-19T05:40:44.562Z,82.39
2019-03-19T05:41:44.530Z,82.35
2019-03-19T05:42:44.511Z,83.01
2019-03-19T05:43:44.532Z,82.77
2019-03-19T05:44:44.567Z,82.91
2019-03-19T05:45:44.491Z,83.23
2019-03-19T05:46:44.482Z,83.64
2019-03-19T05:47:44.472Z,83.33
2019-03-19T05:48:44.464Z,83.01
2019-03-19T05:49:44.506Z,83.01
2019-03-19T05:50:44.457Z,83.18
2019-03-19T05:51:44.438Z,82.56
2019-03-19T05:52:44.444Z,82.91
2019-03-19T05:53:44.439Z,82.91
2019-03-19T05:54:44.419Z,82.35
2019-03-19T05:55:44.463Z,81.97
2019-03-19T05:56:44.402Z,81.87
2019-03-19T05:57:49.301Z,82.04
2019-03-19T05:58:45.394Z,82.60
2019-03-19T05:59:44.416Z,82.60
2019-03-19T06:00:44.361Z,83.12
2019-03-19T06:01:44.331Z,82.81
2019-03-19T06:02:44.394Z,83.44
2019-03-19T06:03:44.317Z,83.54
2019-03-19T06:04:44.356Z,83.64
2019-03-19T06:05:44.293Z,84.38
2019-03-19T06:06:44.284Z,84.12
2019-03-19T06:07:44.304Z,84.27
2019-03-19T06:08:44.295Z,84.48
2019-03-19T06:09:44.249Z,83.40
2019-03-19T06:10:44.266Z,83.81
2019-03-19T06:11:44.231Z,84.23
2019-03-19T06:12:44.219Z,84.12
2019-03-19T06:13:44.231Z,84.02
2019-03-19T06:14:44.235Z,84.38
2019-03-19T06:15:44.189Z,84.12
2019-03-19T06:16:44.177Z,84.23
2019-03-19T06:17:44.204Z,84.34
2019-03-19T06:18:44.143Z,84.02
2019-03-19T06:19:44.152Z,84.09
2019-03-19T06:20:44.147Z,83.88
2019-03-19T06:21:44.124Z,83.98
2019-03-19T06:22:44.185Z,84.19
2019-03-19T06:23:44.107Z,83.71
2019-03-19T06:24:44.124Z,84.12
2019-03-19T06:25:44.085Z,84.40
2019-03-19T06:26:44.073Z,84.61
2019-03-19T06:27:44.054Z,84.40
2019-03-19T06:28:44.084Z,84.72
2019-03-19T06:29:44.049Z,85.03
2019-03-19T06:30:44.054Z,85.13
2019-03-19T06:31:44.021Z,84.50
2019-03-19T06:32:44.023Z,84.40
2019-03-19T06:33:44.023Z,84.47
2019-03-19T06:34:43.988Z,84.67
2019-03-19T06:35:44.004Z,84.67
2019-03-19T06:36:44.000Z,84.67
2019-03-19T06:37:43.952Z,85.10
2019-03-19T06:38:43.968Z,84.33
2019-03-19T06:39:43.924Z,84.33
2019-03-19T06:40:43.951Z,84.43
2019-03-19T06:41:43.913Z,84.43
2019-03-19T06:42:43.944Z,84.43
2019-03-19T06:43:43.877Z,84.28
2019-03-19T06:44:43.864Z,84.91
2019-03-19T06:45:43.899Z,84.95
2019-03-19T06:46:43.835Z,84.70
2019-03-19T06:47:43.838Z,84.70
2019-03-19T06:48:43.827Z,84.28
2019-03-19T06:49:43.835Z,84.39
2019-03-19T06:50:45.454Z,84.50
2019-03-19T06:51:43.797Z,84.35
2019-03-19T06:52:43.890Z,84.35
2019-03-19T06:53:43.801Z,83.94
2019-03-19T06:54:43.787Z,84.25
2019-03-19T06:55:43.800Z,84.04
2019-03-19T06:56:43.753Z,84.04
2019-03-19T06:57:43.750Z,84.04
2019-03-19T06:58:43.734Z,84.00
2019-03-19T06:59:43.737Z,83.90
2019-03-19T07:00:43.752Z,84.21
2019-03-19T07:01:43.693Z,84.00
2019-03-19T07:02:43.708Z,84.00
2019-03-19T07:03:43.680Z,84.21
2019-03-19T07:04:43.661Z,84.00
2019-03-19T07:05:43.622Z,84.42
2019-03-19T07:06:43.693Z,84.27
2019-03-19T07:07:43.648Z,84.73
2019-03-19T07:08:43.703Z,84.17
2019-03-19T07:09:43.621Z,84.59
2019-03-19T07:10:43.612Z,84.00
2019-03-19T07:11:43.575Z,84.06
2019-03-19T07:12:43.576Z,84.17
2019-03-19T07:13:43.553Z,84.48
2019-03-19T07:14:43.557Z,84.23
2019-03-19T07:15:43.545Z,84.48
2019-03-19T07:16:43.535Z,83.61
2019-03-19T07:17:43.498Z,83.72
2019-03-19T07:18:43.527Z,83.47
2019-03-19T07:19:43.548Z,83.58
2019-03-19T07:20:43.514Z,83.78
2019-03-19T07:21:43.475Z,83.89
2019-03-19T07:22:43.493Z,83.26
2019-03-19T07:23:43.454Z,83.26
2019-03-19T07:24:43.467Z,83.12
2019-03-19T07:25:43.476Z,82.91
2019-03-19T07:26:43.441Z,82.81
2019-03-19T07:27:43.406Z,83.12
2019-03-19T07:28:43.414Z,82.81
2019-03-19T07:29:43.372Z,82.81
2019-03-19T07:30:43.398Z,82.50
2019-03-19T07:31:43.432Z,82.35
2019-03-19T07:32:43.355Z,82.77
2019-03-19T07:33:43.374Z,82.67
2019-03-19T07:34:43.333Z,82.35
2019-03-19T07:35:43.352Z,82.73
2019-03-19T07:36:43.423Z,82.11
2019-03-19T07:37:43.278Z,82.32
2019-03-19T07:38:43.320Z,82.73
2019-03-19T07:39:43.331Z,82.07
2019-03-19T07:40:43.340Z,82.28
2019-03-19T07:41:43.268Z,81.66
2019-03-19T07:42:43.269Z,81.51
2019-03-19T07:43:43.252Z,82.07
2019-03-19T07:44:43.258Z,81.35
2019-03-19T07:45:43.287Z,81.56
2019-03-19T07:46:45.740Z,81.45
2019-03-19T07:47:43.218Z,81.10
2019-03-19T07:48:43.185Z,80.79
2019-03-19T07:49:43.171Z,81.82
2019-03-19T07:50:43.197Z,81.20
2019-03-19T07:51:43.178Z,81.41
2019-03-19T07:52:43.159Z,81.58
2019-03-19T07:53:43.138Z,80.47
2019-03-19T07:54:43.146Z,80.75
2019-03-19T07:55:43.117Z,80.96
2019-03-19T07:56:43.118Z,80.75
2019-03-19T07:57:43.109Z,80.33
2019-03-19T07:58:45.486Z,80.51
2019-03-19T07:59:43.093Z,80.40
2019-03-19T08:00:43.125Z,80.30
2019-03-19T08:01:43.123Z,80.71
2019-03-19T08:02:43.104Z,80.30
2019-03-19T08:03:43.010Z,80.09
2019-03-19T08:04:43.005Z,79.37
2019-03-19T08:05:42.993Z,79.95
2019-03-19T08:06:43.006Z,80.36
2019-03-19T08:07:42.964Z,80.57
2019-03-19T08:08:42.958Z,80.47
2019-03-19T08:09:42.929Z,79.13
2019-03-19T08:10:42.941Z,79.64
2019-03-19T08:11:42.960Z,79.85
2019-03-19T08:12:42.961Z,80.16
2019-03-19T08:13:42.898Z,79.09
2019-03-19T08:14:42.890Z,79.40
2019-03-19T08:15:42.889Z,79.09
2019-03-19T08:16:42.905Z,79.71
2019-03-19T08:17:43.251Z,79.19
2019-03-19T08:18:42.862Z,78.78
2019-03-19T08:19:43.723Z,79.47
2019-03-19T08:20:42.811Z,79.47
2019-03-19T08:21:42.885Z,78.85
2019-03-19T08:22:42.812Z,79.47
2019-03-19T08:23:42.796Z,79.26
2019-03-19T08:24:42.861Z,79.05
2019-03-19T08:25:42.776Z,78.85
2019-03-19T08:26:42.784Z,78.85
2019-03-19T08:27:42.758Z,78.60
2019-03-19T08:28:42.747Z,78.29
2019-03-19T08:29:42.760Z,78.81
2019-03-19T08:30:42.752Z,78.08
2019-03-19T08:31:42.742Z,78.67
2019-03-19T08:32:42.777Z,78.46
2019-03-19T08:33:42.695Z,78.67
2019-03-19T08:34:42.672Z,78.67
2019-03-19T08:35:42.670Z,77.84
2019-03-19T08:36:42.664Z,77.43
2019-03-19T08:37:42.675Z,77.01
2019-03-19T08:38:42.685Z,76.50
2019-03-19T08:39:42.625Z,77.43
2019-03-19T08:40:42.655Z,78.25
2019-03-19T08:41:42.691Z,77.91
2019-03-19T08:42:42.598Z,78.01
2019-03-19T08:43:42.613Z,77.29
2019-03-19T08:44:42.578Z,77.08
2019-03-19T08:45:42.557Z,76.46
2019-03-19T08:46:42.625Z,76.53
2019-03-19T08:47:42.553Z,76.32
2019-03-19T08:48:42.511Z,76.22
2019-03-19T08:49:42.522Z,76.12
2019-03-19T08:50:42.554Z,76.01
2019-03-19T08:51:42.807Z,76.22
2019-03-19T08:52:42.492Z,75.81
2019-03-19T08:53:42.495Z,76.53
2019-03-19T08:54:42.474Z,76.70
2019-03-19T08:55:42.454Z,76.90
2019-03-19T08:56:42.445Z,75.98
2019-03-19T08:57:42.468Z,74.74
2019-03-19T08:58:42.434Z,74.12
2019-03-19T08:59:42.424Z,75.05
2019-03-19T09:00:42.426Z,75.05
2019-03-19T09:01:42.478Z,74.71
2019-03-19T09:02:42.381Z,74.71
2019-03-19T09:03:42.358Z,74.08
2019-03-19T09:04:42.358Z,74.19
2019-03-19T09:05:42.346Z,73.88
2019-03-19T09:06:42.361Z,73.88
2019-03-19T09:07:42.321Z,73.19
2019-03-19T09:08:42.311Z,73.09
2019-03-19T09:09:42.301Z,72.88
2019-03-19T09:10:42.282Z,73.91
2019-03-19T09:11:42.337Z,72.57
2019-03-19T09:12:42.266Z,74.12
2019-03-19T09:13:42.258Z,73.88
2019-03-19T09:14:42.275Z,73.39
2019-03-19T09:15:42.564Z,74.29
2019-03-19T09:16:42.308Z,72.64
2019-03-19T09:17:42.250Z,72.57
2019-03-19T09:18:42.206Z,72.57
2019-03-19T09:19:42.215Z,74.08
2019-03-19T09:20:42.201Z,74.08
2019-03-19T09:21:42.251Z,73.05
2019-03-19T09:22:42.218Z,72.47
2019-03-19T09:23:42.173Z,72.36
2019-03-19T09:24:42.159Z,72.02
2019-03-19T09:25:42.152Z,71.20
2019-03-19T09:26:42.206Z,71.51
2019-03-19T09:27:42.134Z,71.95
2019-03-19T09:28:42.122Z,71.30
2019-03-19T09:29:42.083Z,71.61
2019-03-19T09:30:42.078Z,71.92
2019-03-19T09:31:42.055Z,72.02
2019-03-19T09:32:42.089Z,71.47
2019-03-19T09:33:42.084Z,71.26
2019-03-19T09:34:42.084Z,71.68
2019-03-19T09:35:42.018Z,71.06
2019-03-19T09:36:42.009Z,70.75
2019-03-19T09:37:44.815Z,70.75
2019-03-19T09:38:42.979Z,70.20
2019-03-19T09:39:41.969Z,69.89
2019-03-19T09:40:41.973Z,70.34
2019-03-19T09:41:41.951Z,69.51
2019-03-19T09:42:41.972Z,68.86
2019-03-19T09:43:41.935Z,67.73
2019-03-19T09:44:41.921Z,68.24
2019-03-19T09:45:41.942Z,67.93
2019-03-19T09:46:41.930Z,67.32
2019-03-19T09:47:41.921Z,65.88
2019-03-19T09:48:41.907Z,66.28
2019-03-19T09:49:41.869Z,66.46
2019-03-19T09:50:41.862Z,66.25
2019-03-19T09:51:41.825Z,66.15
2019-03-19T09:52:41.885Z,66.05
2019-03-19T09:53:41.824Z,65.12
2019-03-19T09:54:41.837Z,65.43
2019-03-19T09:55:41.810Z,64.09
2019-03-19T09:56:41.850Z,63.89
2019-03-19T09:57:41.818Z,63.78
2019-03-19T09:58:41.784Z,63.17
2019-03-19T09:59:43.619Z,63.03
2019-03-19T10:00:41.747Z,63.57
2019-03-19T10:01:41.735Z,62.52
2019-03-19T10:02:41.809Z,62.00
2019-03-19T10:03:41.724Z,61.90
2019-03-19T10:04:41.715Z,60.84
2019-03-19T10:05:41.690Z,61.77
2019-03-19T10:06:41.705Z,62.28
2019-03-19T10:07:41.708Z,61.98
2019-03-19T10:08:41.668Z,62.07
2019-03-19T10:09:41.667Z,62.49
2019-03-19T10:10:41.730Z,61.22
2019-03-19T10:11:41.604Z,61.94
2019-03-19T10:12:41.635Z,61.02
2019-03-19T10:13:41.618Z,61.09
2019-03-19T10:14:41.593Z,61.81
2019-03-19T10:15:41.603Z,60.68
2019-03-19T10:16:41.592Z,60.17
2019-03-19T10:17:41.623Z,61.09
2019-03-19T10:18:41.564Z,60.14
2019-03-19T10:19:41.552Z,60.27
2019-03-19T10:20:41.508Z,60.78
2019-03-19T10:21:41.536Z,60.55
2019-03-19T10:22:41.531Z,59.52
2019-03-19T10:23:41.520Z,59.01
2019-03-19T10:24:41.482Z,59.01
2019-03-19T10:25:41.486Z,58.59
2019-03-19T10:26:41.458Z,58.59
2019-03-19T10:27:41.530Z,59.08
2019-03-19T10:28:41.458Z,59.63
2019-03-19T10:29:41.436Z,59.08
2019-03-19T10:30:41.443Z,57.67
2019-03-19T10:31:41.426Z,57.75
2019-03-19T10:32:41.429Z,57.34
2019-03-19T10:33:41.421Z,53.74
2019-03-19T10:34:41.402Z,53.53
2019-03-19T10:35:41.342Z,54.87
2019-03-19T10:36:41.366Z,55.08
2019-03-19T10:37:41.396Z,54.77
2019-03-19T10:38:41.326Z,54.46
2019-03-19T10:39:41.317Z,55.90
2019-03-19T10:40:41.309Z,56.51
2019-03-19T10:41:41.372Z,57.34
2019-03-19T10:42:41.357Z,57.23
2019-03-19T10:43:41.301Z,57.75
2019-03-19T10:44:41.261Z,57.34
2019-03-19T10:45:41.275Z,56.62
2019-03-19T10:46:41.242Z,57.03
2019-03-19T10:47:41.247Z,56.72
2019-03-19T10:48:41.228Z,56.10
2019-03-19T10:49:41.200Z,56.49
2019-03-19T10:50:41.203Z,56.90
2019-03-19T10:51:41.189Z,55.66
2019-03-19T10:52:41.229Z,53.41
2019-03-19T10:53:41.219Z,53.51
2019-03-19T10:54:41.169Z,54.74
2019-03-19T10:55:41.236Z,53.89
2019-03-19T10:56:41.124Z,53.28
2019-03-19T10:57:41.183Z,52.97
2019-03-19T10:58:41.128Z,53.17
2019-03-19T10:59:48.784Z,53.59
2019-03-19T11:00:42.078Z,52.97
2019-03-19T11:01:41.075Z,52.76
2019-03-19T11:02:41.110Z,52.76
2019-03-19T11:03:41.080Z,52.97
2019-03-19T11:04:41.097Z,52.44
2019-03-19T11:05:41.056Z,52.76
2019-03-19T11:06:41.049Z,51.95
2019-03-19T11:07:41.078Z,51.92
2019-03-19T11:08:41.024Z,51.12
2019-03-19T11:09:41.015Z,51.33
2019-03-19T11:10:40.956Z,51.84
2019-03-19T11:11:40.995Z,51.33
2019-03-19T11:12:41.014Z,51.74
2019-03-19T11:13:40.957Z,52.56
2019-03-19T11:14:40.934Z,52.76
2019-03-19T11:15:40.918Z,52.69
2019-03-19T11:16:40.907Z,53.94
2019-03-19T11:17:40.930Z,54.97
2019-03-19T11:18:40.889Z,54.56
2019-03-19T11:19:40.874Z,55.38
2019-03-19T11:20:40.880Z,54.59
2019-03-19T11:21:40.983Z,54.97
2019-03-19T11:22:40.840Z,54.56
2019-03-19T11:23:40.865Z,54.87
2019-03-19T11:24:40.819Z,55.08
2019-03-19T11:25:40.808Z,54.85
2019-03-19T11:26:40.806Z,54.74
2019-03-19T11:27:40.796Z,54.95
2019-03-19T11:28:40.809Z,56.08
2019-03-19T11:29:40.765Z,55.87
2019-03-19T11:30:40.742Z,56.72
2019-03-19T11:31:40.778Z,57.10
2019-03-19T11:32:40.764Z,55.98
2019-03-19T11:33:40.722Z,55.36
2019-03-19T11:34:40.727Z,54.33
2019-03-19T11:35:40.709Z,54.64
2019-03-19T11:36:40.698Z,54.43
2019-03-19T11:37:40.711Z,54.85
2019-03-19T11:38:40.720Z,55.15
2019-03-19T11:39:40.651Z,53.49
2019-03-19T11:40:40.642Z,53.38
2019-03-19T11:41:40.634Z,52.15
2019-03-19T11:42:40.631Z,50.92
2019-03-19T11:43:40.615Z,51.53
2019-03-19T11:44:42.850Z,51.43
2019-03-19T11:45:40.586Z,51.84
2019-03-19T11:46:40.575Z,51.33
2019-03-19T11:47:40.565Z,51.53
2019-03-19T11:48:40.620Z,52.04
2019-03-19T11:49:40.547Z,53.38
2019-03-19T11:50:40.534Z,53.89
2019-03-19T11:51:40.516Z,54.90
2019-03-19T11:52:40.517Z,53.66
2019-03-19T11:53:40.540Z,53.77
2019-03-19T11:54:40.517Z,53.05
2019-03-19T11:55:40.512Z,53.97
2019-03-19T11:56:40.470Z,53.46
2019-03-19T11:57:40.450Z,52.82
2019-03-19T11:58:40.475Z,52.61
2019-03-19T11:59:40.440Z,53.36
2019-03-19T12:00:40.454Z,52.72
2019-03-19T12:01:40.440Z,52.92
2019-03-19T12:02:40.413Z,52.51
2019-03-19T12:03:40.392Z,52.41
2019-03-19T12:04:40.418Z,51.59
2019-03-19T12:05:40.369Z,51.79
2019-03-19T12:06:40.367Z,52.10
2019-03-19T12:07:40.409Z,51.39
2019-03-19T12:08:40.320Z,50.46
2019-03-19T12:09:40.381Z,51.07
2019-03-19T12:10:40.323Z,50.95
2019-03-19T12:11:40.327Z,51.56
2019-03-19T12:12:40.360Z,50.44
2019-03-19T12:13:40.274Z,51.48
2019-03-19T12:14:40.255Z,51.07
2019-03-19T12:15:40.290Z,51.26
2019-03-19T12:16:40.257Z,51.87
2019-03-19T12:17:40.268Z,51.87
2019-03-19T12:18:40.233Z,52.69
2019-03-19T12:19:40.221Z,52.47
2019-03-19T12:20:40.210Z,52.28
2019-03-19T12:21:40.204Z,51.03
2019-03-19T12:22:40.211Z,51.13
2019-03-19T12:23:40.162Z,51.34
2019-03-19T12:24:40.184Z,52.05
2019-03-19T12:25:40.140Z,51.31
2019-03-19T12:26:40.149Z,51.13
2019-03-19T12:27:40.179Z,51.34
2019-03-19T12:28:40.148Z,51.13
2019-03-19T12:29:40.147Z,50.42
2019-03-19T12:30:40.120Z,51.44
2019-03-19T12:31:40.083Z,50.29
2019-03-19T12:32:40.073Z,48.96
2019-03-19T12:33:41.357Z,49.98
2019-03-19T12:34:40.075Z,48.88
2019-03-19T12:35:40.044Z,48.59
2019-03-19T12:36:40.054Z,49.10
2019-03-19T12:37:40.107Z,49.21
2019-03-19T12:38:40.043Z,49.10
2019-03-19T12:39:40.012Z,49.31
2019-03-19T12:40:40.005Z,49.31
2019-03-19T12:41:40.001Z,49.72
2019-03-19T12:42:39.981Z,51.46
2019-03-19T12:43:40.031Z,49.72
2019-03-19T12:44:39.992Z,50.42
2019-03-19T12:45:39.968Z,51.54
2019-03-19T12:46:39.920Z,51.44
2019-03-19T12:47:39.908Z,50.82
2019-03-19T12:48:39.907Z,50.72
2019-03-19T12:49:39.954Z,50.10
2019-03-19T12:50:39.881Z,50.39
2019-03-19T12:51:39.938Z,50.09
2019-03-19T12:52:39.876Z,50.70
2019-03-19T12:53:39.901Z,48.52